Turukhansk, Russia
Current Conditions -  °F | °C
As of 11:30 PM on Saturday 20 Dec 2014 (Local Time) from USNN Reporting Station
Light Snow Light Snow  
Wind Chill:   Ceiling: 9200
Heat Index: 14°   Visibility: 6mi
Dew Point: 10°   Wind: 4mph
Humidity: 86%   Direction: NA
Pressure: 29.88"   Gusts: NA
Location:  65.82°N, 87.98°E
Report Text: USNN 201630Z VRB02MPS 9000 -SN OVC092 M10/M12 Q1012 TEMPO 1500SN RMK QFE754 21491532
Loading
Personal Weather Stations






























Interactive Weather Map New forecast layout! Learn more

10-Day Weather Forecast

Advertisements
Track Severe Weather on mobile